createdAt,value
2022-11-05T00:02:42.998Z,39.90
2022-11-05T00:05:36.925Z,43.40
2022-11-05T00:08:31.344Z,46.50
2022-11-05T00:11:07.493Z,39.80
2022-11-05T00:14:01.538Z,40.40
2022-11-05T00:16:46.300Z,41.50
2022-11-05T00:19:22.382Z,40.90
2022-11-05T00:22:15.957Z,40.80
2022-11-05T00:25:09.186Z,43.50
2022-11-05T00:27:46.217Z,39.50
2022-11-05T00:30:26.584Z,39.20
2022-11-05T00:33:06.349Z,43.70
2022-11-05T00:35:42.458Z,44.30
2022-11-05T00:38:18.483Z,42.20
2022-11-05T00:40:54.554Z,41.40
2022-11-05T00:43:56.802Z,45.50
2022-11-05T00:46:32.756Z,40.10
2022-11-05T00:49:27.033Z,40.60
2022-11-05T00:52:17.115Z,39.80
2022-11-05T00:54:52.955Z,40.20
2022-11-05T00:57:28.754Z,42.10
2022-11-05T01:00:05.077Z,46.10
2022-11-05T01:02:41.050Z,42.70
2022-11-05T01:05:17.610Z,43.50
2022-11-05T01:07:54.609Z,40.50
2022-11-05T01:10:31.265Z,42.80
2022-11-05T01:13:12.541Z,41.40
2022-11-05T01:18:25.963Z,35.10
2022-11-05T01:21:10.386Z,40.40
2022-11-05T01:23:46.534Z,39.10
2022-11-05T01:26:22.809Z,42.00
2022-11-05T01:29:00.984Z,40.00
2022-11-05T01:31:37.020Z,40.60
2022-11-05T01:34:12.871Z,40.60
2022-11-05T01:36:48.670Z,37.60
2022-11-05T01:39:24.802Z,38.70
2022-11-05T01:42:00.846Z,45.10
2022-11-05T01:45:06.085Z,43.50
2022-11-05T01:48:07.951Z,38.70
2022-11-05T01:53:35.571Z,36.70
2022-11-05T01:56:19.393Z,39.30
2022-11-05T01:59:04.664Z,40.30
2022-11-05T02:01:40.856Z,44.40
2022-11-05T02:04:26.987Z,40.30
2022-11-05T02:07:05.995Z,40.00
2022-11-05T02:09:49.511Z,35.70
2022-11-05T02:12:29.000Z,41.70
2022-11-05T02:15:05.143Z,40.20
2022-11-05T02:17:59.774Z,41.50
2022-11-05T02:20:55.467Z,41.80
2022-11-05T02:24:16.816Z,42.40
2022-11-05T02:27:35.686Z,43.10
2022-11-05T02:30:43.757Z,41.80
2022-11-05T02:33:40.859Z,42.90
2022-11-05T02:36:42.709Z,48.60
2022-11-05T02:39:43.292Z,48.40
2022-11-05T02:42:36.880Z,51.20
2022-11-05T02:45:33.590Z,44.50
2022-11-05T02:48:23.073Z,41.00
2022-11-05T02:51:11.256Z,38.80
2022-11-05T02:54:03.734Z,42.60
2022-11-05T02:56:44.263Z,40.30
2022-11-05T02:59:21.330Z,44.00
2022-11-05T03:01:58.370Z,39.20
2022-11-05T03:04:35.036Z,45.80
2022-11-05T03:07:45.063Z,48.20
2022-11-05T03:10:52.346Z,45.10
2022-11-05T03:13:42.084Z,43.70
2022-11-05T03:16:30.086Z,45.40
2022-11-05T03:19:18.454Z,45.10
2022-11-05T03:22:03.347Z,41.80
2022-11-05T03:24:47.252Z,50.70
2022-11-05T03:27:30.414Z,42.30
2022-11-05T03:30:12.510Z,45.60
2022-11-05T03:32:56.042Z,49.80
2022-11-05T03:35:41.054Z,33.10
2022-11-05T03:38:24.218Z,33.70
2022-11-05T03:41:05.177Z,20.80
2022-11-05T03:43:46.470Z,18.20
2022-11-05T03:46:30.910Z,10.80
2022-11-05T03:49:12.870Z,10.70
2022-11-05T03:54:30.947Z,9.90
2022-11-05T03:57:16.265Z,13.10
2022-11-05T03:59:53.886Z,10.30
2022-11-05T04:02:32.204Z,12.30
2022-11-05T04:05:09.902Z,11.50
2022-11-05T04:08:07.687Z,12.40
2022-11-05T04:11:05.040Z,9.50
2022-11-05T04:13:40.999Z,9.80
2022-11-05T04:16:34.449Z,8.70
2022-11-05T04:19:10.734Z,8.60
2022-11-05T04:22:04.271Z,9.40
2022-11-05T04:24:40.157Z,8.00
2022-11-05T04:27:16.064Z,8.20
2022-11-05T04:30:09.625Z,8.60
2022-11-05T04:32:55.726Z,9.10
2022-11-05T04:35:33.572Z,8.70
2022-11-05T04:38:12.450Z,9.10
2022-11-05T04:40:49.843Z,7.50
2022-11-05T04:43:25.661Z,7.60
2022-11-05T04:46:01.568Z,9.30
2022-11-05T04:48:38.019Z,7.50
2022-11-05T04:51:14.119Z,8.40
2022-11-05T04:53:50.240Z,9.90
2022-11-05T04:56:28.471Z,7.90
2022-11-05T04:59:04.390Z,7.90
2022-11-05T05:01:40.682Z,7.00
2022-11-05T05:04:16.829Z,9.30
2022-11-05T05:06:52.784Z,7.80
2022-11-05T05:09:28.879Z,8.70
2022-11-05T05:12:04.901Z,8.40
2022-11-05T05:14:41.314Z,8.40
2022-11-05T05:17:17.380Z,8.50
2022-11-05T05:20:11.297Z,8.10
2022-11-05T05:22:51.907Z,7.60
2022-11-05T05:25:27.813Z,10.20
2022-11-05T05:28:03.668Z,10.30
2022-11-05T05:30:39.655Z,9.40
2022-11-05T05:33:15.462Z,8.90
2022-11-05T05:35:51.581Z,7.80
2022-11-05T05:38:27.649Z,8.10
2022-11-05T05:41:04.691Z,8.30
2022-11-05T05:43:40.583Z,7.60
2022-11-05T05:46:19.605Z,7.90
2022-11-05T05:48:56.759Z,8.00
2022-11-05T05:51:32.657Z,8.00
2022-11-05T05:54:09.548Z,15.50
2022-11-05T05:56:47.240Z,8.30
2022-11-05T05:59:23.020Z,7.70
2022-11-05T06:01:59.011Z,7.70
2022-11-05T06:04:34.939Z,7.10
2022-11-05T06:07:11.612Z,8.20
2022-11-05T06:09:47.468Z,6.80
2022-11-05T06:12:23.381Z,7.00
2022-11-05T06:14:59.322Z,6.70
2022-11-05T06:17:35.543Z,9.20
2022-11-05T06:20:14.318Z,7.30
2022-11-05T06:22:58.766Z,7.40
2022-11-05T06:25:39.997Z,9.20
2022-11-05T06:28:17.241Z,7.40
2022-11-05T06:30:57.178Z,6.70
2022-11-05T06:33:33.554Z,7.90
2022-11-05T06:36:15.995Z,7.60
2022-11-05T06:38:51.868Z,7.90
2022-11-05T06:41:27.979Z,7.80
2022-11-05T06:44:04.229Z,7.00
2022-11-05T06:46:42.264Z,8.00
2022-11-05T06:49:24.672Z,7.80
2022-11-05T06:52:01.886Z,9.50
2022-11-05T06:54:47.244Z,7.50
2022-11-05T06:57:23.508Z,7.40
2022-11-05T07:00:03.296Z,8.80
2022-11-05T07:02:41.860Z,8.70
2022-11-05T07:05:18.711Z,8.10
2022-11-05T07:07:54.596Z,9.30
2022-11-05T07:10:30.939Z,11.20
2022-11-05T07:13:09.087Z,8.30
2022-11-05T07:15:45.635Z,9.00
2022-11-05T07:18:21.918Z,8.50
2022-11-05T07:20:57.963Z,9.40
2022-11-05T07:23:34.018Z,10.90
2022-11-05T07:26:10.435Z,9.60
2022-11-05T07:28:46.441Z,8.50
2022-11-05T07:31:22.707Z,9.00
2022-11-05T07:33:59.301Z,9.40
2022-11-05T07:36:35.131Z,9.70
2022-11-05T07:39:11.202Z,10.60
2022-11-05T07:41:47.097Z,10.20
2022-11-05T07:44:23.192Z,10.20
2022-11-05T07:46:59.022Z,10.90
2022-11-05T07:49:34.839Z,9.70
2022-11-05T07:52:11.232Z,9.50
2022-11-05T07:54:47.138Z,10.60
2022-11-05T07:57:23.136Z,8.60
2022-11-05T07:59:59.235Z,8.60
2022-11-05T08:02:35.210Z,8.40
2022-11-05T08:05:12.440Z,9.20
2022-11-05T08:07:48.371Z,9.80
2022-11-05T08:10:24.882Z,8.10
2022-11-05T08:13:01.063Z,10.80
2022-11-05T08:15:38.094Z,8.70
2022-11-05T08:18:18.318Z,8.10
2022-11-05T08:20:54.179Z,7.70
2022-11-05T08:23:31.539Z,9.80
2022-11-05T08:26:08.390Z,8.40
2022-11-05T08:28:44.394Z,8.50
2022-11-05T08:31:20.455Z,8.40
2022-11-05T08:34:02.165Z,8.60
2022-11-05T08:36:42.038Z,9.60
2022-11-05T08:39:19.078Z,8.70
2022-11-05T08:41:55.051Z,10.40
2022-11-05T08:44:31.392Z,9.00
2022-11-05T08:47:07.248Z,9.70
2022-11-05T08:49:43.081Z,10.30
2022-11-05T08:52:18.953Z,9.50
2022-11-05T08:54:54.808Z,9.10
2022-11-05T08:57:30.665Z,9.20
2022-11-05T09:00:08.841Z,8.10
2022-11-05T09:02:45.021Z,9.30
2022-11-05T09:05:21.505Z,9.70
2022-11-05T09:08:00.809Z,10.90
2022-11-05T09:10:38.122Z,9.10
2022-11-05T09:13:18.755Z,9.10
2022-11-05T09:15:55.839Z,10.30
2022-11-05T09:18:32.590Z,13.20
2022-11-05T09:21:08.465Z,11.70
2022-11-05T09:23:44.239Z,11.70
2022-11-05T09:26:20.205Z,11.10
2022-11-05T09:28:56.062Z,11.90
2022-11-05T09:31:32.052Z,13.50
2022-11-05T09:34:07.947Z,14.40
2022-11-05T09:36:44.401Z,15.00
2022-11-05T09:39:20.437Z,14.50
2022-11-05T09:42:02.397Z,19.10
2022-11-05T09:47:28.283Z,16.30
2022-11-05T09:50:12.744Z,16.20
2022-11-05T09:52:49.275Z,16.20
2022-11-05T09:55:34.610Z,16.00
2022-11-05T09:58:27.488Z,17.80
2022-11-05T10:01:07.846Z,15.90
2022-11-05T10:03:50.211Z,17.00
2022-11-05T10:06:32.127Z,14.20
2022-11-05T10:11:55.875Z,13.70
2022-11-05T10:14:37.831Z,12.90
2022-11-05T10:17:24.334Z,13.30
2022-11-05T10:20:15.710Z,13.00
2022-11-05T10:22:59.838Z,15.60
2022-11-05T10:25:43.710Z,13.70
2022-11-05T10:28:24.649Z,13.80
2022-11-05T10:31:08.076Z,13.00
2022-11-05T10:33:49.569Z,13.70
2022-11-05T10:36:31.991Z,13.80
2022-11-05T10:39:17.756Z,12.20
2022-11-05T10:42:24.259Z,11.80
2022-11-05T10:45:20.978Z,12.90
2022-11-05T10:48:27.253Z,13.30
2022-11-05T10:51:03.839Z,12.80
2022-11-05T10:53:44.698Z,15.00
2022-11-05T10:56:40.500Z,12.00
2022-11-05T10:59:29.685Z,11.90
2022-11-05T11:02:26.342Z,11.80
2022-11-05T11:05:02.367Z,11.80
2022-11-05T11:07:38.560Z,11.00
2022-11-05T11:10:26.698Z,11.80
2022-11-05T11:13:03.210Z,12.80
2022-11-05T11:15:39.583Z,10.90
2022-11-05T11:18:42.082Z,12.50
2022-11-05T11:21:23.242Z,10.90
2022-11-05T11:24:07.029Z,12.80
2022-11-05T11:26:44.841Z,12.30
2022-11-05T11:29:29.895Z,13.20
2022-11-05T11:32:10.876Z,13.10
2022-11-05T11:34:50.618Z,13.20
2022-11-05T11:37:32.315Z,13.50
2022-11-05T11:40:20.464Z,13.30
2022-11-05T11:43:02.096Z,13.30
2022-11-05T11:45:48.119Z,12.90
2022-11-05T11:48:29.710Z,15.10
2022-11-05T11:51:30.349Z,13.50
2022-11-05T11:54:19.146Z,15.30
2022-11-05T11:56:55.179Z,13.50
2022-11-05T12:00:06.402Z,14.90
2022-11-05T12:03:01.517Z,15.20
2022-11-05T12:05:49.131Z,14.10
2022-11-05T12:09:00.595Z,13.60
2022-11-05T12:11:51.950Z,14.50
2022-11-05T12:14:46.284Z,14.30
2022-11-05T12:17:48.578Z,14.60
2022-11-05T12:21:05.078Z,17.30
2022-11-05T12:24:22.439Z,15.10
2022-11-05T12:27:19.147Z,16.10
2022-11-05T12:30:06.715Z,16.70
2022-11-05T12:33:23.913Z,17.10
2022-11-05T12:36:19.110Z,18.70
2022-11-05T12:39:26.924Z,17.60
2022-11-05T12:42:16.006Z,17.10
2022-11-05T12:45:06.366Z,19.90
2022-11-05T12:48:03.981Z,62.70
2022-11-05T12:50:47.806Z,19.30
2022-11-05T12:54:09.982Z,20.30
2022-11-05T12:56:53.825Z,16.50
2022-11-05T12:59:37.661Z,17.50
2022-11-05T13:02:25.426Z,18.40
2022-11-05T13:05:13.828Z,17.70
2022-11-05T13:07:57.973Z,17.90
2022-11-05T13:10:44.070Z,19.80
2022-11-05T13:13:32.241Z,18.70
2022-11-05T13:16:18.408Z,17.00
2022-11-05T13:19:00.185Z,18.50
2022-11-05T13:21:38.809Z,17.20
2022-11-05T13:24:24.724Z,17.40
2022-11-05T13:27:17.610Z,20.80
2022-11-05T13:29:58.182Z,18.00
2022-11-05T13:32:39.845Z,17.70
2022-11-05T13:35:27.272Z,17.80
2022-11-05T13:38:28.928Z,16.50
2022-11-05T13:41:27.706Z,18.50
2022-11-05T13:44:49.032Z,19.80
2022-11-05T13:48:17.230Z,19.80
2022-11-05T13:51:20.210Z,17.50
2022-11-05T13:54:25.508Z,17.80
2022-11-05T13:57:33.020Z,19.80
2022-11-05T14:00:20.196Z,26.60
2022-11-05T14:03:02.300Z,18.10
2022-11-05T14:08:27.548Z,14.30
2022-11-05T14:11:16.669Z,17.70
2022-11-05T14:13:58.421Z,18.90
2022-11-05T14:16:53.108Z,18.90
2022-11-05T14:19:53.126Z,17.40
2022-11-05T14:22:43.699Z,19.80
2022-11-05T14:26:18.550Z,23.30
2022-11-05T14:29:39.742Z,15.80
2022-11-05T14:32:50.136Z,18.50
2022-11-05T14:35:42.818Z,19.10
2022-11-05T14:38:28.982Z,18.90
2022-11-05T14:41:10.126Z,18.80
2022-11-05T14:44:01.899Z,18.60
2022-11-05T14:46:52.207Z,21.10
2022-11-05T14:49:33.484Z,20.10
2022-11-05T14:52:19.271Z,20.70
2022-11-05T14:54:59.373Z,21.20
2022-11-05T14:58:30.214Z,20.80
2022-11-05T15:01:09.520Z,21.00
2022-11-05T15:04:27.402Z,22.00
2022-11-05T15:07:39.470Z,19.30
2022-11-05T15:10:20.354Z,17.40
2022-11-05T15:13:05.745Z,17.30
2022-11-05T15:15:50.992Z,19.60
2022-11-05T15:18:36.691Z,17.10
2022-11-05T15:21:18.895Z,18.80
2022-11-05T15:23:59.710Z,19.60
2022-11-05T15:26:52.422Z,16.60
2022-11-05T15:29:32.981Z,16.20
2022-11-05T15:32:18.724Z,19.00
2022-11-05T15:34:59.159Z,17.90
2022-11-05T15:37:35.103Z,19.80
2022-11-05T15:40:33.725Z,20.60
2022-11-05T15:43:22.571Z,20.70
2022-11-05T15:46:20.891Z,22.50
2022-11-05T15:49:00.637Z,24.00
2022-11-05T15:51:36.958Z,20.20
2022-11-05T15:54:30.211Z,19.40
2022-11-05T15:57:16.037Z,23.40
2022-11-05T15:59:53.646Z,22.90
2022-11-05T16:02:40.385Z,24.90
2022-11-05T16:05:18.460Z,22.50
2022-11-05T16:07:54.805Z,32.20
2022-11-05T16:10:37.804Z,21.30
2022-11-05T16:13:38.013Z,19.90
2022-11-05T16:16:36.812Z,18.80
2022-11-05T16:19:44.440Z,17.90
2022-11-05T16:22:21.087Z,19.50
2022-11-05T16:24:58.062Z,19.90
2022-11-05T16:27:33.978Z,20.90
2022-11-05T16:30:22.915Z,19.90
2022-11-05T16:33:05.869Z,17.40
2022-11-05T16:35:50.810Z,17.10
2022-11-05T16:38:27.118Z,17.40
2022-11-05T16:41:03.179Z,14.60
2022-11-05T16:43:38.980Z,13.30
2022-11-05T16:46:16.350Z,12.10
2022-11-05T16:48:52.726Z,12.70
2022-11-05T16:51:31.421Z,17.40
2022-11-05T16:54:07.701Z,64.60
2022-11-05T16:56:43.968Z,13.70
2022-11-05T16:59:19.901Z,12.50
2022-11-05T17:01:56.299Z,10.90
2022-11-05T17:04:32.352Z,12.60
2022-11-05T17:07:08.237Z,11.50
2022-11-05T17:09:45.241Z,12.00
2022-11-05T17:12:22.516Z,13.00
2022-11-05T17:14:58.365Z,11.70
2022-11-05T17:17:34.382Z,14.70
2022-11-05T17:20:21.810Z,11.30
2022-11-05T17:22:58.691Z,10.90
2022-11-05T17:25:35.414Z,12.70
2022-11-05T17:28:13.531Z,13.90
2022-11-05T17:30:53.039Z,13.40
2022-11-05T17:33:30.139Z,10.20
2022-11-05T17:36:12.122Z,12.90
2022-11-05T17:38:48.270Z,14.30
2022-11-05T17:41:27.017Z,13.40
2022-11-05T17:44:03.438Z,13.40
2022-11-05T17:46:40.028Z,12.60
2022-11-05T17:49:16.095Z,15.90
2022-11-05T17:51:51.906Z,13.30
2022-11-05T17:54:28.084Z,12.70
2022-11-05T17:57:05.050Z,14.20
2022-11-05T17:59:42.247Z,14.10
2022-11-05T18:02:18.656Z,15.80
2022-11-05T18:04:57.371Z,16.60
2022-11-05T18:07:33.412Z,13.90
2022-11-05T18:10:11.700Z,18.50
2022-11-05T18:12:49.074Z,22.80
2022-11-05T18:15:25.260Z,35.30
2022-11-05T18:18:01.803Z,15.60
2022-11-05T18:20:39.178Z,18.80
2022-11-05T18:23:18.685Z,14.10
2022-11-05T18:25:56.585Z,16.70
2022-11-05T18:28:33.007Z,11.90
2022-11-05T18:31:18.623Z,13.80
2022-11-05T18:33:58.590Z,16.90
2022-11-05T18:36:37.488Z,16.80
2022-11-05T18:39:14.507Z,14.90
2022-11-05T18:41:50.402Z,64.30
2022-11-05T18:44:26.369Z,20.90
2022-11-05T18:47:02.607Z,15.10
2022-11-05T18:49:38.734Z,14.50
2022-11-05T18:52:14.849Z,15.60
2022-11-05T18:54:50.718Z,16.80
2022-11-05T18:57:26.738Z,16.50
2022-11-05T19:00:02.620Z,13.50
2022-11-05T19:02:38.817Z,14.30
2022-11-05T19:05:28.708Z,16.70
2022-11-05T19:08:06.244Z,14.90
2022-11-05T19:10:51.566Z,26.70
2022-11-05T19:13:28.428Z,15.10
2022-11-05T19:16:06.568Z,13.10
2022-11-05T19:18:42.782Z,12.80
2022-11-05T19:21:22.335Z,12.50
2022-11-05T19:24:02.704Z,14.30
2022-11-05T19:26:39.244Z,15.50
2022-11-05T19:29:16.357Z,12.40
2022-11-05T19:31:53.131Z,13.70
2022-11-05T19:34:29.114Z,11.90
2022-11-05T19:37:07.272Z,12.70
2022-11-05T19:39:43.972Z,15.40
2022-11-05T19:42:22.126Z,11.90
2022-11-05T19:45:03.162Z,11.90
2022-11-05T19:47:53.030Z,13.60
2022-11-05T19:50:29.461Z,13.40
2022-11-05T19:53:06.751Z,16.00
2022-11-05T19:55:46.121Z,16.90
2022-11-05T19:58:22.042Z,15.50
2022-11-05T20:01:01.170Z,15.20
2022-11-05T20:03:38.652Z,17.40
2022-11-05T20:06:19.223Z,15.50
2022-11-05T20:11:53.998Z,12.30
2022-11-05T20:14:31.140Z,17.60
2022-11-05T20:17:07.036Z,14.70
2022-11-05T20:19:43.103Z,15.30
2022-11-05T20:22:19.143Z,30.80
2022-11-05T20:24:55.172Z,18.70
2022-11-05T20:27:32.254Z,14.30
2022-11-05T20:30:11.606Z,15.30
2022-11-05T20:32:47.580Z,19.00
2022-11-05T20:35:24.363Z,15.40
2022-11-05T20:38:00.377Z,18.20
2022-11-05T20:40:36.626Z,14.80
2022-11-05T20:43:12.943Z,16.90
2022-11-05T20:45:49.167Z,12.40
2022-11-05T20:48:25.205Z,13.50
2022-11-05T20:51:04.857Z,13.00
2022-11-05T20:53:41.584Z,12.40
2022-11-05T20:56:24.807Z,18.70
2022-11-05T20:59:02.960Z,10.90
2022-11-05T21:01:40.166Z,27.20
2022-11-05T21:04:16.563Z,14.40
2022-11-05T21:06:53.425Z,11.30
2022-11-05T21:09:29.924Z,11.60
2022-11-05T21:12:12.271Z,8.80
2022-11-05T21:14:49.774Z,12.00
2022-11-05T21:17:25.683Z,10.70
2022-11-05T21:20:01.887Z,12.00
2022-11-05T21:22:38.247Z,9.70
2022-11-05T21:25:15.091Z,10.10
2022-11-05T21:27:51.050Z,11.80
2022-11-05T21:30:27.074Z,11.30
2022-11-05T21:33:03.331Z,13.50
2022-11-05T21:35:45.068Z,12.90
2022-11-05T21:38:22.348Z,12.30
2022-11-05T21:41:01.269Z,12.50
2022-11-05T21:43:38.846Z,11.90
2022-11-05T21:46:16.707Z,13.30
2022-11-05T21:48:52.756Z,13.30
2022-11-05T21:51:46.559Z,12.30
2022-11-05T21:54:40.389Z,12.00
2022-11-05T21:57:38.608Z,12.80
2022-11-05T22:00:17.060Z,14.20
2022-11-05T22:02:53.707Z,11.30
2022-11-05T22:05:29.882Z,12.60
2022-11-05T22:08:06.269Z,12.50
2022-11-05T22:10:42.201Z,13.60
2022-11-05T22:13:18.361Z,12.80
2022-11-05T22:16:01.297Z,10.80
2022-11-05T22:18:37.779Z,11.90
2022-11-05T22:21:20.520Z,11.50
2022-11-05T22:23:57.271Z,11.40
2022-11-05T22:26:35.369Z,14.40
2022-11-05T22:29:12.443Z,11.90
2022-11-05T22:31:48.508Z,11.60
2022-11-05T22:34:28.526Z,11.60
2022-11-05T22:37:05.237Z,10.20
2022-11-05T22:39:41.296Z,12.10
2022-11-05T22:42:19.830Z,11.40
2022-11-05T22:44:55.851Z,15.00
2022-11-05T22:47:31.760Z,14.90
2022-11-05T22:50:09.638Z,17.50
2022-11-05T22:52:46.192Z,14.00
2022-11-05T22:55:22.394Z,14.30
2022-11-05T22:57:58.243Z,15.00
2022-11-05T23:00:42.392Z,15.20
2022-11-05T23:03:18.513Z,16.90
2022-11-05T23:06:07.704Z,13.20
2022-11-05T23:09:02.044Z,17.30
2022-11-05T23:11:41.346Z,14.90
2022-11-05T23:14:18.680Z,15.70
2022-11-05T23:17:12.247Z,20.10
2022-11-05T23:20:05.743Z,16.60
2022-11-05T23:22:59.528Z,15.30
2022-11-05T23:25:35.494Z,15.30
2022-11-05T23:28:15.322Z,17.20
2022-11-05T23:31:09.200Z,16.30
2022-11-05T23:33:45.286Z,17.50
2022-11-05T23:36:38.534Z,15.10
2022-11-05T23:39:14.465Z,15.70
2022-11-05T23:42:07.925Z,18.20
2022-11-05T23:45:01.575Z,16.90
2022-11-05T23:47:55.193Z,19.00
2022-11-05T23:50:37.089Z,16.40
2022-11-05T23:53:15.658Z,15.20
2022-11-05T23:55:51.894Z,19.20
2022-11-05T23:58:27.976Z,20.20
